createdAt,value
2023-11-25T00:02:08.352Z,1.00
2023-11-25T00:05:11.143Z,0.85
2023-11-25T00:08:13.501Z,1.17
2023-11-25T00:11:25.267Z,0.77
2023-11-25T00:14:30.818Z,0.73
2023-11-25T00:17:34.244Z,0.50
2023-11-25T00:20:38.247Z,0.90
2023-11-25T00:23:40.994Z,1.42
2023-11-25T00:26:43.885Z,0.73
2023-11-25T00:29:46.583Z,1.08
2023-11-25T00:32:50.639Z,0.80
2023-11-25T00:35:53.411Z,0.90
2023-11-25T00:38:55.779Z,0.80
2023-11-25T00:41:59.366Z,0.60
2023-11-25T00:45:01.784Z,0.80
2023-11-25T00:48:04.777Z,0.70
2023-11-25T00:51:07.267Z,0.55
2023-11-25T00:54:09.993Z,0.80
2023-11-25T00:57:12.491Z,1.12
2023-11-25T01:00:17.883Z,1.30
2023-11-25T01:03:20.784Z,1.87
2023-11-25T01:06:23.752Z,1.00
2023-11-25T01:09:29.435Z,2.70
2023-11-25T01:12:34.704Z,1.60
2023-11-25T01:15:37.041Z,1.80
2023-11-25T01:18:41.616Z,1.80
2023-11-25T01:21:44.275Z,1.45
2023-11-25T01:24:48.959Z,0.88
2023-11-25T01:27:52.087Z,1.85
2023-11-25T01:30:54.753Z,1.73
2023-11-25T01:33:58.557Z,1.20
2023-11-25T01:37:01.281Z,1.98
2023-11-25T01:40:06.787Z,2.53
2023-11-25T01:43:11.852Z,1.70
2023-11-25T01:46:27.743Z,0.80
2023-11-25T01:49:31.036Z,0.50
2023-11-25T01:52:35.262Z,0.77
2023-11-25T01:55:38.014Z,0.80
2023-11-25T01:58:40.602Z,1.00
2023-11-25T02:01:45.335Z,0.90
2023-11-25T02:04:48.755Z,0.57
2023-11-25T02:07:52.021Z,0.90
2023-11-25T02:10:55.104Z,1.08
2023-11-25T02:13:57.500Z,0.85
2023-11-25T02:17:01.364Z,1.12
2023-11-25T02:20:06.225Z,0.73
2023-11-25T02:23:18.100Z,0.88
2023-11-25T02:26:21.952Z,0.80
2023-11-25T02:29:24.700Z,0.80
2023-11-25T02:32:27.171Z,0.77
2023-11-25T02:35:29.948Z,0.70
2023-11-25T02:38:32.431Z,0.50
2023-11-25T02:41:36.375Z,0.98
2023-11-25T02:44:38.926Z,0.70
2023-11-25T02:47:41.649Z,0.75
2023-11-25T02:50:45.058Z,0.90
2023-11-25T02:53:50.418Z,0.70
2023-11-25T02:56:52.815Z,0.70
2023-11-25T02:59:56.400Z,0.55
2023-11-25T03:03:09.582Z,0.90
2023-11-25T03:06:12.402Z,0.83
2023-11-25T03:09:15.865Z,0.98
2023-11-25T03:12:18.516Z,1.10
2023-11-25T03:15:20.994Z,0.62
2023-11-25T03:18:23.716Z,1.10
2023-11-25T03:21:26.195Z,1.20
2023-11-25T03:24:29.097Z,1.10
2023-11-25T03:27:32.153Z,1.08
2023-11-25T03:30:34.830Z,0.50
2023-11-25T03:33:38.012Z,1.00
2023-11-25T03:36:41.188Z,0.90
2023-11-25T03:39:43.671Z,0.70
2023-11-25T03:42:46.378Z,0.73
2023-11-25T03:45:49.250Z,0.75
2023-11-25T03:48:51.931Z,1.00
2023-11-25T03:51:54.410Z,0.80
2023-11-25T03:54:57.097Z,1.12
2023-11-25T03:58:00.474Z,1.20
2023-11-25T04:01:03.104Z,0.80
2023-11-25T04:04:07.415Z,0.70
2023-11-25T04:07:09.948Z,0.60
2023-11-25T04:10:14.102Z,0.60
2023-11-25T04:13:16.758Z,1.00
2023-11-25T04:16:19.469Z,0.68
2023-11-25T04:19:22.199Z,0.75
2023-11-25T04:22:25.286Z,0.70
2023-11-25T04:25:27.787Z,0.90
2023-11-25T04:28:30.874Z,0.88
2023-11-25T04:31:33.345Z,1.10
2023-11-25T04:34:36.185Z,1.40
2023-11-25T04:37:38.961Z,1.03
2023-11-25T04:40:41.796Z,0.90
2023-11-25T04:43:44.695Z,0.88
2023-11-25T04:46:47.742Z,0.90
2023-11-25T04:49:50.224Z,1.40
2023-11-25T04:52:53.105Z,0.90
2023-11-25T04:55:55.483Z,1.10
2023-11-25T04:58:58.182Z,2.03
2023-11-25T05:02:00.933Z,1.83
2023-11-25T05:05:05.052Z,1.15
2023-11-25T05:08:07.966Z,1.00
2023-11-25T05:11:10.734Z,0.93
2023-11-25T05:14:13.842Z,1.25
2023-11-25T05:17:16.596Z,0.73
2023-11-25T05:20:19.350Z,1.12
2023-11-25T05:23:22.025Z,0.87
2023-11-25T05:26:25.091Z,0.60
2023-11-25T05:29:27.787Z,0.80
2023-11-25T05:32:30.149Z,0.65
2023-11-25T05:35:33.210Z,0.80
2023-11-25T05:38:35.751Z,0.50
2023-11-25T05:41:38.730Z,0.73
2023-11-25T05:44:41.153Z,4.85
2023-11-25T05:47:43.841Z,8.27
2023-11-25T05:50:46.241Z,2.03
2023-11-25T05:53:48.971Z,1.30
2023-11-25T05:56:52.015Z,1.20
2023-11-25T05:59:54.703Z,0.80
2023-11-25T06:02:57.219Z,0.77
2023-11-25T06:05:59.909Z,1.20
2023-11-25T06:09:02.407Z,0.70
2023-11-25T06:12:05.574Z,0.60
2023-11-25T06:15:08.479Z,0.82
2023-11-25T06:18:14.768Z,0.50
2023-11-25T06:21:17.211Z,0.90
2023-11-25T06:24:19.830Z,0.43
2023-11-25T06:27:23.133Z,0.60
2023-11-25T06:30:25.852Z,0.95
2023-11-25T06:33:30.178Z,0.90
2023-11-25T06:36:32.909Z,0.32
2023-11-25T06:39:36.524Z,0.43
2023-11-25T06:42:39.710Z,1.67
2023-11-25T06:45:43.135Z,1.17
2023-11-25T06:48:45.799Z,0.62
2023-11-25T06:51:49.051Z,0.70
2023-11-25T06:54:51.746Z,0.57
2023-11-25T06:57:54.879Z,1.45
2023-11-25T07:00:59.890Z,2.53
2023-11-25T07:04:05.432Z,0.85
2023-11-25T07:07:08.451Z,0.85
2023-11-25T07:10:11.720Z,0.70
2023-11-25T07:13:14.765Z,1.00
2023-11-25T07:16:17.821Z,0.82
2023-11-25T07:19:22.083Z,0.90
2023-11-25T07:22:24.546Z,0.80
2023-11-25T07:25:29.260Z,0.80
2023-11-25T07:28:31.665Z,0.50
2023-11-25T07:31:34.489Z,0.80
2023-11-25T07:34:37.239Z,1.98
2023-11-25T07:37:41.125Z,2.03
2023-11-25T07:40:43.582Z,1.20
2023-11-25T07:43:47.743Z,0.90
2023-11-25T07:46:50.450Z,0.95
2023-11-25T07:49:53.173Z,1.10
2023-11-25T07:52:55.607Z,1.02
2023-11-25T07:55:58.591Z,1.50
2023-11-25T07:59:03.098Z,1.30
2023-11-25T08:02:06.059Z,1.62
2023-11-25T08:05:09.828Z,1.80
2023-11-25T08:08:13.211Z,1.60
2023-11-25T08:11:23.696Z,2.57
2023-11-25T08:14:26.500Z,1.23
2023-11-25T08:17:31.038Z,1.52
2023-11-25T08:20:34.490Z,2.25
2023-11-25T08:23:37.801Z,1.92
2023-11-25T08:26:40.203Z,2.07
2023-11-25T08:29:43.070Z,1.20
2023-11-25T08:32:45.624Z,0.90
2023-11-25T08:35:48.404Z,0.62
2023-11-25T08:38:52.897Z,1.60
2023-11-25T08:41:56.247Z,0.80
2023-11-25T08:45:01.302Z,0.73
2023-11-25T08:48:07.149Z,1.10
2023-11-25T08:51:11.960Z,1.30
2023-11-25T08:54:15.198Z,0.60
2023-11-25T08:57:18.186Z,1.50
2023-11-25T09:00:21.540Z,1.10
2023-11-25T09:03:24.348Z,1.73
2023-11-25T09:06:27.116Z,1.20
2023-11-25T09:09:29.573Z,1.10
2023-11-25T09:12:33.048Z,1.27
2023-11-25T09:15:41.649Z,0.88
2023-11-25T09:18:45.070Z,2.00
2023-11-25T09:21:47.496Z,1.25
2023-11-25T09:24:50.154Z,0.80
2023-11-25T09:27:53.579Z,1.00
2023-11-25T09:30:56.368Z,0.90
2023-11-25T09:34:00.094Z,0.90
2023-11-25T09:37:03.981Z,1.20
2023-11-25T09:40:07.928Z,1.00
2023-11-25T09:43:10.630Z,0.77
2023-11-25T09:46:14.558Z,1.20
2023-11-25T09:49:17.519Z,1.20
2023-11-25T09:52:20.800Z,1.12
2023-11-25T09:55:24.661Z,1.15
2023-11-25T09:58:29.620Z,1.00
2023-11-25T10:01:33.367Z,0.62
2023-11-25T10:04:40.084Z,0.85
2023-11-25T10:07:43.298Z,0.55
2023-11-25T10:11:15.715Z,0.80
2023-11-25T10:14:22.993Z,0.60
2023-11-25T10:17:26.029Z,1.52
2023-11-25T10:20:28.533Z,1.50
2023-11-25T10:23:31.228Z,2.45
2023-11-25T10:26:33.628Z,1.92
2023-11-25T10:29:37.386Z,1.17
2023-11-25T10:32:39.930Z,2.80
2023-11-25T10:35:42.728Z,2.00
2023-11-25T10:38:45.258Z,2.17
2023-11-25T10:41:52.480Z,6.78
2023-11-25T10:44:55.244Z,1.83
2023-11-25T10:47:58.631Z,1.37
2023-11-25T10:51:01.260Z,3.17
2023-11-25T10:54:04.532Z,2.47
2023-11-25T10:57:07.117Z,3.28
2023-11-25T11:00:13.329Z,1.67
2023-11-25T11:03:17.656Z,2.80
2023-11-25T11:06:29.738Z,3.28
2023-11-25T11:09:34.808Z,2.80
2023-11-25T11:12:47.934Z,8.85
2023-11-25T11:15:53.222Z,7.47
2023-11-25T11:18:57.013Z,15.10
2023-11-25T11:22:06.760Z,4.68
2023-11-25T11:25:19.349Z,1.70
2023-11-25T11:28:24.714Z,2.20
2023-11-25T11:31:46.347Z,1.53
2023-11-25T11:34:49.873Z,1.60
2023-11-25T11:37:53.160Z,2.20
2023-11-25T11:41:07.971Z,1.05
2023-11-25T11:44:13.351Z,1.87
2023-11-25T11:47:15.757Z,2.70
2023-11-25T11:50:32.700Z,1.08
2023-11-25T11:53:35.228Z,11.32
2023-11-25T11:56:59.602Z,3.05
2023-11-25T12:00:15.727Z,2.25
2023-11-25T12:03:18.902Z,1.50
2023-11-25T12:06:24.157Z,1.92
2023-11-25T12:09:27.212Z,0.85
2023-11-25T12:12:29.621Z,1.60
2023-11-25T12:15:32.729Z,1.90
2023-11-25T12:18:36.706Z,1.47
2023-11-25T12:21:39.665Z,1.00
2023-11-25T12:24:44.831Z,1.55
2023-11-25T12:27:52.033Z,2.90
2023-11-25T12:30:54.494Z,4.20
2023-11-25T12:34:01.492Z,1.90
2023-11-25T12:37:04.014Z,1.85
2023-11-25T12:40:20.182Z,3.17
2023-11-25T12:43:22.623Z,1.75
2023-11-25T12:46:25.371Z,1.73
2023-11-25T12:49:27.860Z,3.23
2023-11-25T12:52:31.450Z,1.77
2023-11-25T12:55:44.430Z,1.05
2023-11-25T12:58:47.693Z,3.10
2023-11-25T13:01:50.942Z,1.80
2023-11-25T13:04:53.960Z,1.10
2023-11-25T13:07:56.451Z,1.77
2023-11-25T13:11:01.183Z,2.97
2023-11-25T13:14:04.262Z,1.70
2023-11-25T13:17:07.306Z,2.12
2023-11-25T13:20:12.370Z,1.60
2023-11-25T13:23:15.575Z,1.37
2023-11-25T13:26:18.912Z,1.90
2023-11-25T13:29:21.654Z,2.85
2023-11-25T13:32:24.110Z,2.25
2023-11-25T13:35:26.896Z,1.20
2023-11-25T13:38:30.287Z,2.25
2023-11-25T13:41:33.071Z,2.70
2023-11-25T13:44:36.264Z,2.12
2023-11-25T13:47:39.948Z,2.45
2023-11-25T13:50:42.467Z,2.60
2023-11-25T13:53:45.235Z,1.95
2023-11-25T13:56:48.323Z,1.90
2023-11-25T13:59:50.976Z,2.70
2023-11-25T14:02:53.600Z,2.50
2023-11-25T14:05:57.320Z,4.10
2023-11-25T14:09:00.072Z,1.90
2023-11-25T14:12:04.144Z,2.75
2023-11-25T14:15:08.095Z,3.42
2023-11-25T14:18:11.906Z,2.10
2023-11-25T14:21:14.652Z,2.67
2023-11-25T14:24:18.107Z,1.40
2023-11-25T14:27:20.930Z,2.90
2023-11-25T14:30:29.898Z,2.00
2023-11-25T14:33:32.550Z,2.67
2023-11-25T14:36:35.338Z,2.43
2023-11-25T14:39:47.314Z,2.72
2023-11-25T14:42:54.002Z,3.58
2023-11-25T14:45:56.391Z,2.85
2023-11-25T14:49:00.071Z,2.83
2023-11-25T14:52:02.962Z,2.70
2023-11-25T14:55:07.532Z,2.58
2023-11-25T14:58:11.331Z,2.90
2023-11-25T15:01:13.979Z,2.12
2023-11-25T15:04:16.516Z,1.95
2023-11-25T15:07:19.945Z,2.20
2023-11-25T15:10:26.227Z,2.17
2023-11-25T15:13:29.229Z,1.58
2023-11-25T15:16:31.628Z,1.95
2023-11-25T15:19:36.631Z,3.60
2023-11-25T15:22:39.207Z,2.60
2023-11-25T15:25:42.176Z,2.58
2023-11-25T15:28:45.037Z,2.72
2023-11-25T15:31:48.278Z,2.30
2023-11-25T15:34:50.919Z,1.85
2023-11-25T15:37:53.875Z,2.47
2023-11-25T15:40:56.542Z,2.25
2023-11-25T15:43:59.276Z,2.42
2023-11-25T15:47:02.247Z,4.87
2023-11-25T15:50:07.031Z,2.97
2023-11-25T15:53:09.999Z,2.47
2023-11-25T15:56:12.986Z,4.68
2023-11-25T15:59:15.658Z,3.83
2023-11-25T16:02:20.177Z,2.47
2023-11-25T16:05:23.300Z,3.60
2023-11-25T16:08:27.061Z,2.80
2023-11-25T16:11:29.713Z,3.50
2023-11-25T16:14:32.113Z,3.28
2023-11-25T16:17:35.530Z,2.75
2023-11-25T16:20:41.398Z,3.72
2023-11-25T16:23:45.327Z,4.07
2023-11-25T16:26:48.283Z,3.22
2023-11-25T16:29:54.052Z,2.78
2023-11-25T16:33:04.793Z,2.12
2023-11-25T16:36:08.419Z,3.55
2023-11-25T16:39:11.555Z,3.10
2023-11-25T16:42:14.262Z,1.35
2023-11-25T16:45:17.347Z,1.30
2023-11-25T16:48:22.409Z,1.40
2023-11-25T16:51:27.588Z,1.37
2023-11-25T16:54:30.227Z,1.80
2023-11-25T16:57:32.974Z,1.35
2023-11-25T17:00:35.913Z,3.28
2023-11-25T17:03:38.961Z,1.52
2023-11-25T17:06:42.004Z,2.58
2023-11-25T17:09:44.751Z,1.47
2023-11-25T17:12:47.739Z,2.90
2023-11-25T17:15:50.342Z,4.00
2023-11-25T17:18:54.272Z,2.42
2023-11-25T17:21:57.104Z,2.30
2023-11-25T17:25:00.033Z,2.17
2023-11-25T17:28:03.261Z,2.62
2023-11-25T17:31:06.406Z,4.20
2023-11-25T17:34:09.297Z,3.33
2023-11-25T17:37:14.049Z,5.03
2023-11-25T17:40:17.002Z,4.10
2023-11-25T17:43:20.546Z,3.28
2023-11-25T17:46:23.246Z,2.58
2023-11-25T17:49:26.347Z,2.95
2023-11-25T17:52:29.362Z,4.72
2023-11-25T17:55:32.062Z,5.23
2023-11-25T17:58:35.177Z,5.87
2023-11-25T18:01:37.979Z,5.18
2023-11-25T18:04:41.244Z,2.70
2023-11-25T18:07:45.186Z,2.03
2023-11-25T18:10:47.984Z,2.87
2023-11-25T18:13:50.519Z,2.42
2023-11-25T18:16:55.353Z,1.62
2023-11-25T18:19:57.931Z,2.17
2023-11-25T18:23:00.682Z,1.33
2023-11-25T18:26:03.478Z,1.97
2023-11-25T18:29:06.930Z,2.40
2023-11-25T18:32:09.911Z,1.92
2023-11-25T18:35:13.162Z,3.12
2023-11-25T18:38:15.849Z,2.42
2023-11-25T18:41:18.643Z,2.90
2023-11-25T18:44:21.467Z,2.58
2023-11-25T18:47:24.634Z,4.87
2023-11-25T18:50:28.983Z,4.70
2023-11-25T18:53:33.104Z,2.67
2023-11-25T18:56:37.143Z,3.13
2023-11-25T18:59:45.448Z,1.37
2023-11-25T19:02:48.933Z,1.87
2023-11-25T19:05:52.193Z,3.25
2023-11-25T19:08:54.897Z,4.43
2023-11-25T19:11:57.726Z,1.43
2023-11-25T19:15:00.359Z,4.07
2023-11-25T19:18:03.813Z,3.87
2023-11-25T19:21:06.572Z,2.40
2023-11-25T19:24:09.512Z,3.92
2023-11-25T19:27:11.917Z,3.67
2023-11-25T19:30:14.790Z,4.20
2023-11-25T19:33:17.303Z,3.67
2023-11-25T19:36:20.019Z,2.65
2023-11-25T19:39:22.520Z,5.53
2023-11-25T19:42:25.538Z,4.87
2023-11-25T19:45:27.972Z,5.43
2023-11-25T19:48:30.752Z,4.03
2023-11-25T19:51:33.414Z,3.60
2023-11-25T19:54:36.261Z,5.18
2023-11-25T19:57:39.354Z,4.17
2023-11-25T20:00:49.381Z,2.53
2023-11-25T20:03:59.750Z,3.78
2023-11-25T20:07:02.747Z,1.98
2023-11-25T20:10:07.217Z,2.42
2023-11-25T20:13:09.982Z,1.10
2023-11-25T20:16:12.702Z,1.58
2023-11-25T20:19:15.971Z,2.35
2023-11-25T20:22:21.336Z,1.85
2023-11-25T20:25:23.942Z,2.42
2023-11-25T20:28:26.776Z,1.33
2023-11-25T20:31:29.817Z,2.10
2023-11-25T20:34:32.486Z,1.35
2023-11-25T20:37:35.038Z,1.95
2023-11-25T20:40:37.980Z,1.52
2023-11-25T20:43:40.521Z,1.60
2023-11-25T20:46:43.250Z,2.10
2023-11-25T20:49:47.498Z,1.55
2023-11-25T20:52:50.434Z,1.48
2023-11-25T20:55:53.096Z,0.85
2023-11-25T20:58:55.838Z,1.43
2023-11-25T21:01:58.534Z,1.10
2023-11-25T21:05:02.309Z,1.20
2023-11-25T21:08:05.388Z,3.70
2023-11-25T21:11:08.147Z,1.30
2023-11-25T21:14:11.556Z,0.87
2023-11-25T21:17:14.389Z,0.82
2023-11-25T21:20:17.428Z,1.10
2023-11-25T21:23:20.222Z,1.70
2023-11-25T21:26:22.618Z,1.55
2023-11-25T21:29:25.766Z,3.57
2023-11-25T21:32:28.913Z,10.05
2023-11-25T21:35:31.813Z,10.45
2023-11-25T21:38:34.302Z,6.20
2023-11-25T21:41:36.970Z,3.35
2023-11-25T21:44:39.421Z,2.03
2023-11-25T21:47:42.073Z,1.55
2023-11-25T21:50:44.468Z,1.73
2023-11-25T21:53:47.075Z,0.93
2023-11-25T21:56:49.822Z,3.60
2023-11-25T21:59:53.309Z,3.70
2023-11-25T22:02:56.886Z,3.70
2023-11-25T22:06:01.029Z,4.47
2023-11-25T22:09:03.581Z,6.62
2023-11-25T22:12:07.521Z,6.85
2023-11-25T22:15:11.241Z,8.27
2023-11-25T22:18:14.683Z,9.55
2023-11-25T22:21:21.215Z,9.13
2023-11-25T22:24:26.645Z,7.03
2023-11-25T22:27:32.507Z,4.72
2023-11-25T22:30:35.327Z,4.13
2023-11-25T22:33:38.362Z,5.10
2023-11-25T22:36:40.989Z,8.80
2023-11-25T22:39:44.871Z,7.20
2023-11-25T22:42:56.640Z,5.85
2023-11-25T22:45:59.000Z,4.00
2023-11-25T22:49:01.629Z,3.78
2023-11-25T22:52:04.342Z,2.72
2023-11-25T22:55:07.161Z,1.92
2023-11-25T22:58:09.730Z,2.62
2023-11-25T23:01:16.855Z,1.23
2023-11-25T23:04:19.372Z,1.70
2023-11-25T23:07:22.015Z,2.42
2023-11-25T23:10:24.412Z,1.95
2023-11-25T23:13:27.117Z,3.30
2023-11-25T23:16:29.511Z,2.17
2023-11-25T23:19:32.277Z,2.30
2023-11-25T23:22:34.705Z,2.03
2023-11-25T23:25:37.373Z,1.23
2023-11-25T23:28:39.785Z,2.67
2023-11-25T23:31:42.504Z,2.27
2023-11-25T23:34:45.069Z,1.98
2023-11-25T23:37:47.756Z,3.10
2023-11-25T23:40:50.403Z,2.97
2023-11-25T23:43:53.063Z,1.73
2023-11-25T23:46:55.480Z,3.13
2023-11-25T23:49:58.284Z,3.40
2023-11-25T23:53:00.754Z,2.25
2023-11-25T23:56:03.662Z,5.25
2023-11-25T23:59:06.213Z,4.43
